createdAt,value
2022-10-01T00:00:48.561Z,1.20
2022-10-01T00:03:23.428Z,1.00
2022-10-01T00:06:03.242Z,1.05
2022-10-01T00:08:37.571Z,1.40
2022-10-01T00:11:14.536Z,1.25
2022-10-01T00:13:48.317Z,1.50
2022-10-01T00:16:24.217Z,1.52
2022-10-01T00:18:58.427Z,1.70
2022-10-01T00:21:32.817Z,1.60
2022-10-01T00:24:07.359Z,1.83
2022-10-01T00:26:40.150Z,1.90
2022-10-01T00:29:15.369Z,1.70
2022-10-01T00:31:47.941Z,1.80
2022-10-01T00:34:20.727Z,1.50
2022-10-01T00:36:53.271Z,1.92
2022-10-01T00:39:25.856Z,2.00
2022-10-01T00:41:58.544Z,1.63
2022-10-01T00:44:35.956Z,1.70
2022-10-01T00:47:28.142Z,1.45
2022-10-01T00:50:16.200Z,1.17
2022-10-01T00:52:56.116Z,0.88
2022-10-01T00:55:31.011Z,1.05
2022-10-01T00:58:06.334Z,1.00
2022-10-01T01:03:14.980Z,1.20
2022-10-01T01:05:48.123Z,0.90
2022-10-01T01:08:20.676Z,1.08
2022-10-01T01:11:03.253Z,0.98
2022-10-01T01:14:01.103Z,1.17
2022-10-01T01:16:38.657Z,1.00
2022-10-01T01:19:29.950Z,0.80
2022-10-01T01:22:06.966Z,0.93
2022-10-01T01:24:59.646Z,0.82
2022-10-01T01:27:46.981Z,0.88
2022-10-01T01:30:20.783Z,1.10
2022-10-01T01:33:02.890Z,0.93
2022-10-01T01:35:42.507Z,0.90
2022-10-01T01:38:20.580Z,1.10
2022-10-01T01:40:56.038Z,1.10
2022-10-01T01:46:07.937Z,1.30
2022-10-01T01:48:44.918Z,1.40
2022-10-01T01:51:31.924Z,1.00
2022-10-01T01:54:05.003Z,1.65
2022-10-01T01:56:37.716Z,1.00
2022-10-01T01:59:10.730Z,1.20
2022-10-01T02:01:44.524Z,1.30
2022-10-01T02:04:34.508Z,1.20
2022-10-01T02:07:16.435Z,1.15
2022-10-01T02:09:58.066Z,1.08
2022-10-01T02:12:37.428Z,1.27
2022-10-01T02:15:12.767Z,1.27
2022-10-01T02:18:03.016Z,1.27
2022-10-01T02:20:44.741Z,0.90
2022-10-01T02:23:24.449Z,1.00
2022-10-01T02:26:03.088Z,1.00
2022-10-01T02:28:40.275Z,0.90
2022-10-01T02:31:16.058Z,1.00
2022-10-01T02:33:51.274Z,1.00
2022-10-01T02:36:26.399Z,1.00
2022-10-01T02:39:00.762Z,0.60
2022-10-01T02:41:36.629Z,0.70
2022-10-01T02:44:14.668Z,0.70
2022-10-01T02:47:08.267Z,0.80
2022-10-01T02:49:42.273Z,0.70
2022-10-01T02:52:25.926Z,0.70
2022-10-01T02:55:05.691Z,0.90
2022-10-01T02:57:38.762Z,0.70
2022-10-01T03:00:14.773Z,0.73
2022-10-01T03:02:48.512Z,0.90
2022-10-01T03:05:21.410Z,0.70
2022-10-01T03:07:54.045Z,0.90
2022-10-01T03:10:26.518Z,0.80
2022-10-01T03:13:00.566Z,1.00
2022-10-01T03:15:33.341Z,0.70
2022-10-01T03:18:05.869Z,0.93
2022-10-01T03:20:38.592Z,0.73
2022-10-01T03:23:11.253Z,0.80
2022-10-01T03:25:43.681Z,1.00
2022-10-01T03:28:16.368Z,1.05
2022-10-01T03:30:48.880Z,0.80
2022-10-01T03:33:21.497Z,0.90
2022-10-01T03:35:54.042Z,0.90
2022-10-01T03:38:26.642Z,0.90
2022-10-01T03:40:59.210Z,0.93
2022-10-01T03:43:31.890Z,0.90
2022-10-01T03:46:04.731Z,0.90
2022-10-01T03:48:37.703Z,0.88
2022-10-01T03:51:10.260Z,1.02
2022-10-01T03:53:42.707Z,1.10
2022-10-01T03:56:17.565Z,0.80
2022-10-01T03:58:50.173Z,0.88
2022-10-01T04:01:23.083Z,0.88
2022-10-01T04:03:55.613Z,0.70
2022-10-01T04:06:28.228Z,0.80
2022-10-01T04:09:00.881Z,0.80
2022-10-01T04:11:33.603Z,0.77
2022-10-01T04:14:06.559Z,0.80
2022-10-01T04:16:39.320Z,0.68
2022-10-01T04:19:12.086Z,0.80
2022-10-01T04:21:44.591Z,0.90
2022-10-01T04:24:17.162Z,0.77
2022-10-01T04:26:52.191Z,0.82
2022-10-01T04:29:24.706Z,0.80
2022-10-01T04:31:58.534Z,0.70
2022-10-01T04:34:47.155Z,0.80
2022-10-01T04:37:21.431Z,1.20
2022-10-01T04:39:54.549Z,1.10
2022-10-01T04:42:27.609Z,1.10
2022-10-01T04:45:00.308Z,1.17
2022-10-01T04:47:36.850Z,1.05
2022-10-01T04:50:10.464Z,1.02
2022-10-01T04:52:43.314Z,0.82
2022-10-01T04:55:17.525Z,1.02
2022-10-01T04:57:50.414Z,1.10
2022-10-01T05:00:26.063Z,0.88
2022-10-01T05:02:58.660Z,1.10
2022-10-01T05:05:33.571Z,1.10
2022-10-01T05:08:06.137Z,1.20
2022-10-01T05:10:38.691Z,1.08
2022-10-01T05:13:11.329Z,1.27
2022-10-01T05:15:45.241Z,0.77
2022-10-01T05:18:17.647Z,1.00
2022-10-01T05:20:50.319Z,1.10
2022-10-01T05:23:22.967Z,1.02
2022-10-01T05:25:55.418Z,1.00
2022-10-01T05:28:28.302Z,1.20
2022-10-01T05:31:02.559Z,1.33
2022-10-01T05:33:35.049Z,1.13
2022-10-01T05:36:07.568Z,1.17
2022-10-01T05:38:40.027Z,1.17
2022-10-01T05:41:12.581Z,0.80
2022-10-01T05:43:48.076Z,0.90
2022-10-01T05:46:20.800Z,0.90
2022-10-01T05:48:53.371Z,0.90
2022-10-01T05:51:26.366Z,0.70
2022-10-01T05:53:59.771Z,0.50
2022-10-01T05:56:32.632Z,0.80
2022-10-01T05:59:05.710Z,0.90
2022-10-01T06:01:38.406Z,0.60
2022-10-01T06:04:11.137Z,0.70
2022-10-01T06:06:43.991Z,0.80
2022-10-01T06:09:16.558Z,0.70
2022-10-01T06:11:49.584Z,0.70
2022-10-01T06:14:22.307Z,0.70
2022-10-01T06:16:55.250Z,0.65
2022-10-01T06:19:27.719Z,0.70
2022-10-01T06:22:00.295Z,0.65
2022-10-01T06:24:32.925Z,0.80
2022-10-01T06:27:05.625Z,0.88
2022-10-01T06:29:38.454Z,0.80
2022-10-01T06:32:14.431Z,0.82
2022-10-01T06:34:46.999Z,0.70
2022-10-01T06:37:19.560Z,0.60
2022-10-01T06:39:52.048Z,0.63
2022-10-01T06:42:24.574Z,0.70
2022-10-01T06:44:57.118Z,0.57
2022-10-01T06:47:29.581Z,0.73
2022-10-01T06:50:01.998Z,0.77
2022-10-01T06:52:49.747Z,0.70
2022-10-01T06:55:25.793Z,0.60
2022-10-01T06:58:00.982Z,0.60
2022-10-01T07:00:36.411Z,0.75
2022-10-01T07:05:44.707Z,0.80
2022-10-01T07:08:17.971Z,0.77
2022-10-01T07:10:50.462Z,0.55
2022-10-01T07:13:23.246Z,0.70
2022-10-01T07:15:55.924Z,0.60
2022-10-01T07:18:28.477Z,0.90
2022-10-01T07:21:01.969Z,0.70
2022-10-01T07:23:34.668Z,1.25
2022-10-01T07:26:09.382Z,0.60
2022-10-01T07:28:42.264Z,0.70
2022-10-01T07:31:15.078Z,0.80
2022-10-01T07:33:48.717Z,0.80
2022-10-01T07:36:21.469Z,1.10
2022-10-01T07:38:54.167Z,2.28
2022-10-01T07:41:27.369Z,1.60
2022-10-01T07:44:00.138Z,1.48
2022-10-01T07:46:34.812Z,2.42
2022-10-01T07:49:09.052Z,3.75
2022-10-01T07:51:44.363Z,3.97
2022-10-01T07:54:17.086Z,3.83
2022-10-01T07:56:53.153Z,4.80
2022-10-01T07:59:27.930Z,5.05
2022-10-01T08:02:01.284Z,5.07
2022-10-01T08:04:49.240Z,5.35
2022-10-01T08:07:21.707Z,4.93
2022-10-01T08:09:54.371Z,4.03
2022-10-01T08:12:29.287Z,4.93
2022-10-01T08:15:03.553Z,4.55
2022-10-01T08:17:38.128Z,3.45
2022-10-01T08:20:12.759Z,3.60
2022-10-01T08:22:45.302Z,3.95
2022-10-01T08:25:17.907Z,4.70
2022-10-01T08:27:50.371Z,3.88
2022-10-01T08:30:23.125Z,4.10
2022-10-01T08:32:57.689Z,5.10
2022-10-01T08:35:30.760Z,4.33
2022-10-01T08:38:05.129Z,4.70
2022-10-01T08:40:47.733Z,4.32
2022-10-01T08:43:29.241Z,3.95
2022-10-01T08:46:07.095Z,3.63
2022-10-01T08:48:45.899Z,3.72
2022-10-01T08:51:39.909Z,3.97
2022-10-01T08:54:38.303Z,3.70
2022-10-01T08:57:16.353Z,3.50
2022-10-01T08:59:55.389Z,3.92
2022-10-01T09:02:35.603Z,3.80
2022-10-01T09:05:22.840Z,3.92
2022-10-01T09:08:16.673Z,3.85
2022-10-01T09:11:01.114Z,3.90
2022-10-01T09:13:52.163Z,4.18
2022-10-01T09:16:40.298Z,3.95
2022-10-01T09:19:41.005Z,4.47
2022-10-01T09:22:41.894Z,4.15
2022-10-01T09:25:27.277Z,4.57
2022-10-01T09:28:18.535Z,3.65
2022-10-01T09:31:16.880Z,4.13
2022-10-01T09:34:03.311Z,4.13
2022-10-01T09:36:54.131Z,3.58
2022-10-01T09:39:33.893Z,4.38
2022-10-01T09:42:06.874Z,3.90
2022-10-01T09:44:39.653Z,3.80
2022-10-01T09:47:19.214Z,3.63
2022-10-01T09:49:52.624Z,3.40
2022-10-01T09:52:44.616Z,2.60
2022-10-01T09:55:18.791Z,3.20
2022-10-01T09:57:56.756Z,2.75
2022-10-01T10:00:30.628Z,2.80
2022-10-01T10:03:04.251Z,3.10
2022-10-01T10:05:48.436Z,2.30
2022-10-01T10:08:36.795Z,2.50
2022-10-01T10:11:11.816Z,2.38
2022-10-01T10:13:52.464Z,2.17
2022-10-01T10:16:29.894Z,1.63
2022-10-01T10:19:15.457Z,1.70
2022-10-01T10:21:53.644Z,1.92
2022-10-01T10:24:33.137Z,1.70
2022-10-01T10:27:21.555Z,1.85
2022-10-01T10:30:15.383Z,1.50
2022-10-01T10:32:48.576Z,2.75
2022-10-01T10:35:26.006Z,2.30
2022-10-01T10:37:59.035Z,2.22
2022-10-01T10:40:41.874Z,1.88
2022-10-01T10:43:23.058Z,1.80
2022-10-01T10:45:57.546Z,1.60
2022-10-01T10:48:37.031Z,1.60
2022-10-01T10:51:11.030Z,1.60
2022-10-01T10:53:46.199Z,2.40
2022-10-01T10:56:23.854Z,2.55
2022-10-01T10:59:08.665Z,3.15
2022-10-01T11:01:44.096Z,2.80
2022-10-01T11:04:26.645Z,3.53
2022-10-01T11:07:02.044Z,3.60
2022-10-01T11:09:48.017Z,4.47
2022-10-01T11:12:47.659Z,4.80
2022-10-01T11:15:36.846Z,5.30
2022-10-01T11:18:21.867Z,4.13
2022-10-01T11:21:06.131Z,4.25
2022-10-01T11:23:56.031Z,4.18
2022-10-01T11:26:42.798Z,4.80
2022-10-01T11:29:46.497Z,9.20
2022-10-01T11:32:48.856Z,7.88
2022-10-01T11:35:25.918Z,8.20
2022-10-01T11:38:24.458Z,8.10
2022-10-01T11:41:10.598Z,8.02
2022-10-01T11:43:49.027Z,8.35
2022-10-01T11:46:39.022Z,8.82
2022-10-01T11:49:43.473Z,9.48
2022-10-01T11:52:33.045Z,9.82
2022-10-01T11:55:40.765Z,11.00
2022-10-01T11:58:36.329Z,10.35
2022-10-01T12:01:14.439Z,10.70
2022-10-01T12:03:55.225Z,12.27
2022-10-01T12:06:49.769Z,11.60
2022-10-01T12:09:32.812Z,10.85
2022-10-01T12:12:11.112Z,11.95
2022-10-01T12:14:57.371Z,11.75
2022-10-01T12:17:47.268Z,12.13
2022-10-01T12:20:34.644Z,12.43
2022-10-01T12:23:14.554Z,41.28
2022-10-01T12:26:18.689Z,11.85
2022-10-01T12:29:02.776Z,10.05
2022-10-01T12:31:50.164Z,7.35
2022-10-01T12:34:54.036Z,7.78
2022-10-01T12:37:34.929Z,7.47
2022-10-01T12:40:14.282Z,6.18
2022-10-01T12:42:48.598Z,6.93
2022-10-01T12:45:44.011Z,6.85
2022-10-01T12:48:33.075Z,8.50
2022-10-01T12:51:16.936Z,7.25
2022-10-01T12:54:00.872Z,8.30
2022-10-01T12:56:39.625Z,8.18
2022-10-01T12:59:13.448Z,8.05
2022-10-01T13:02:03.867Z,5.40
2022-10-01T13:04:40.681Z,3.45
2022-10-01T13:07:13.833Z,7.25
2022-10-01T13:10:17.180Z,3.50
2022-10-01T13:12:51.753Z,4.72
2022-10-01T13:15:30.153Z,1.17
2022-10-01T13:18:33.370Z,2.05
2022-10-01T13:21:14.695Z,8.52
2022-10-01T13:24:06.601Z,1.45
2022-10-01T13:26:39.961Z,0.88
2022-10-01T13:29:24.639Z,2.20
2022-10-01T13:32:01.132Z,12.63
2022-10-01T13:34:38.664Z,0.65
2022-10-01T13:37:31.114Z,0.80
2022-10-01T13:40:23.030Z,0.60
2022-10-01T13:43:03.010Z,0.65
2022-10-01T13:45:39.599Z,0.70
2022-10-01T13:48:15.437Z,0.98
2022-10-01T13:51:05.371Z,0.52
2022-10-01T13:53:51.135Z,0.43
2022-10-01T13:59:01.720Z,0.65
2022-10-01T14:01:42.598Z,0.50
2022-10-01T14:04:20.097Z,0.60
2022-10-01T14:06:55.265Z,0.90
2022-10-01T14:09:34.535Z,0.88
2022-10-01T14:12:33.033Z,0.50
2022-10-01T14:15:31.352Z,0.50
2022-10-01T14:18:10.714Z,0.57
2022-10-01T14:21:09.215Z,0.60
2022-10-01T14:23:52.525Z,0.65
2022-10-01T14:26:35.040Z,0.80
2022-10-01T14:29:23.035Z,0.70
2022-10-01T14:32:02.261Z,0.65
2022-10-01T14:34:55.603Z,0.60
2022-10-01T14:37:29.312Z,0.70
2022-10-01T14:40:19.884Z,0.50
2022-10-01T14:43:02.769Z,0.70
2022-10-01T14:45:35.444Z,0.50
2022-10-01T14:48:10.108Z,0.70
2022-10-01T14:50:49.947Z,0.80
2022-10-01T14:53:26.312Z,0.80
2022-10-01T14:56:15.177Z,0.75
2022-10-01T14:58:55.777Z,0.68
2022-10-01T15:01:28.900Z,0.73
2022-10-01T15:04:01.991Z,0.70
2022-10-01T15:06:42.829Z,0.77
2022-10-01T15:09:19.339Z,0.77
2022-10-01T15:11:52.275Z,0.70
2022-10-01T15:14:25.803Z,0.50
2022-10-01T15:17:04.372Z,0.88
2022-10-01T15:19:45.264Z,0.60
2022-10-01T15:22:21.714Z,0.45
2022-10-01T15:25:01.103Z,0.63
2022-10-01T15:27:34.177Z,0.68
2022-10-01T15:30:13.951Z,0.75
2022-10-01T15:32:48.794Z,0.73
2022-10-01T15:35:23.910Z,0.63
2022-10-01T15:38:00.897Z,0.82
2022-10-01T15:40:35.923Z,0.70
2022-10-01T15:43:09.226Z,0.70
2022-10-01T15:45:42.717Z,0.80
2022-10-01T15:48:31.301Z,0.90
2022-10-01T15:51:24.639Z,0.60
2022-10-01T15:54:09.194Z,0.70
2022-10-01T15:56:46.972Z,0.88
2022-10-01T15:59:21.434Z,0.60
2022-10-01T16:01:54.281Z,0.47
2022-10-01T16:04:27.316Z,0.50
2022-10-01T16:07:00.196Z,0.50
2022-10-01T16:09:32.874Z,0.60
2022-10-01T16:12:21.353Z,0.75
2022-10-01T16:15:02.614Z,0.50
2022-10-01T16:17:39.646Z,0.80
2022-10-01T16:20:16.004Z,0.60
2022-10-01T16:22:49.283Z,0.80
2022-10-01T16:25:24.256Z,0.50
2022-10-01T16:28:01.806Z,0.57
2022-10-01T16:30:34.578Z,0.80
2022-10-01T16:33:11.214Z,0.60
2022-10-01T16:35:45.776Z,0.80
2022-10-01T16:38:18.482Z,0.73
2022-10-01T16:40:52.757Z,0.77
2022-10-01T16:43:25.502Z,0.57
2022-10-01T16:46:02.083Z,0.50
2022-10-01T16:48:34.883Z,1.00
2022-10-01T16:51:07.621Z,0.90
2022-10-01T16:53:43.188Z,0.60
2022-10-01T16:56:16.060Z,0.70
2022-10-01T16:58:48.675Z,0.63
2022-10-01T17:01:21.418Z,0.63
2022-10-01T17:03:54.120Z,0.63
2022-10-01T17:06:26.950Z,0.40
2022-10-01T17:09:00.245Z,0.80
2022-10-01T17:11:33.207Z,0.70
2022-10-01T17:14:09.349Z,0.70
2022-10-01T17:16:43.300Z,0.60
2022-10-01T17:19:16.352Z,0.60
2022-10-01T17:21:49.189Z,0.60
2022-10-01T17:24:21.939Z,0.50
2022-10-01T17:26:54.709Z,0.73
2022-10-01T17:29:27.259Z,0.40
2022-10-01T17:32:00.215Z,0.50
2022-10-01T17:34:36.073Z,0.80
2022-10-01T17:37:08.625Z,0.55
2022-10-01T17:39:43.365Z,0.60
2022-10-01T17:42:17.133Z,0.60
2022-10-01T17:44:50.244Z,0.80
2022-10-01T17:47:22.893Z,0.65
2022-10-01T17:49:55.570Z,0.90
2022-10-01T17:52:28.089Z,0.70
2022-10-01T17:55:00.726Z,1.08
2022-10-01T17:57:33.719Z,0.80
2022-10-01T18:00:07.615Z,0.82
2022-10-01T18:02:47.695Z,0.60
2022-10-01T18:05:20.405Z,0.98
2022-10-01T18:07:53.003Z,0.70
2022-10-01T18:10:26.133Z,0.60
2022-10-01T18:12:58.909Z,0.77
2022-10-01T18:15:31.391Z,0.68
2022-10-01T18:21:03.940Z,0.90
2022-10-01T18:23:37.055Z,1.02
2022-10-01T18:26:13.904Z,1.30
2022-10-01T18:28:48.342Z,0.77
2022-10-01T18:31:26.858Z,0.70
2022-10-01T18:34:03.023Z,0.95
2022-10-01T18:36:54.771Z,0.73
2022-10-01T18:39:36.568Z,0.50
2022-10-01T18:42:21.547Z,0.98
2022-10-01T18:44:58.893Z,0.80
2022-10-01T18:47:50.108Z,0.80
2022-10-01T18:50:33.527Z,0.85
2022-10-01T18:53:28.914Z,0.70
2022-10-01T18:56:16.031Z,0.50
2022-10-01T18:59:19.976Z,0.60
2022-10-01T19:02:05.826Z,0.60
2022-10-01T19:07:30.355Z,0.95
2022-10-01T19:10:23.765Z,0.70
2022-10-01T19:13:06.611Z,1.17
2022-10-01T19:16:10.175Z,0.75
2022-10-01T19:19:13.742Z,0.70
2022-10-01T19:22:05.315Z,1.08
2022-10-01T19:24:59.646Z,0.60
2022-10-01T19:27:49.516Z,0.88
2022-10-01T19:30:22.194Z,0.77
2022-10-01T19:33:11.177Z,1.05
2022-10-01T19:35:52.129Z,0.90
2022-10-01T19:38:41.194Z,0.75
2022-10-01T19:41:20.845Z,0.95
2022-10-01T19:44:07.712Z,0.90
2022-10-01T19:46:45.613Z,0.60
2022-10-01T19:49:26.271Z,0.80
2022-10-01T19:52:02.894Z,1.00
2022-10-01T19:54:39.817Z,0.63
2022-10-01T19:57:23.166Z,0.80
2022-10-01T19:59:59.849Z,0.70
2022-10-01T20:02:41.260Z,0.80
2022-10-01T20:05:18.887Z,0.60
2022-10-01T20:08:00.983Z,0.90
2022-10-01T20:10:42.698Z,0.95
2022-10-01T20:13:39.017Z,0.90
2022-10-01T20:16:32.696Z,0.95
2022-10-01T20:19:21.884Z,0.90
2022-10-01T20:22:25.643Z,1.10
2022-10-01T20:25:12.203Z,1.00
2022-10-01T20:28:11.537Z,0.77
2022-10-01T20:31:05.202Z,0.70
2022-10-01T20:33:43.677Z,0.95
2022-10-01T20:36:36.440Z,1.00
2022-10-01T20:39:35.031Z,0.90
2022-10-01T20:42:16.410Z,0.73
2022-10-01T20:44:49.212Z,0.80
2022-10-01T20:47:27.974Z,0.90
2022-10-01T20:50:09.798Z,0.77
2022-10-01T20:53:04.275Z,0.82
2022-10-01T20:55:44.190Z,0.98
2022-10-01T20:58:24.318Z,1.30
2022-10-01T21:01:02.415Z,0.90
2022-10-01T21:03:41.138Z,0.70
2022-10-01T21:06:36.094Z,0.70
2022-10-01T21:09:16.183Z,0.90
2022-10-01T21:12:02.465Z,0.80
2022-10-01T21:14:41.902Z,0.90
2022-10-01T21:17:30.099Z,0.90
2022-10-01T21:20:33.961Z,1.10
2022-10-01T21:23:24.204Z,0.90
2022-10-01T21:26:13.706Z,1.10
2022-10-01T21:29:10.502Z,1.00
2022-10-01T21:32:04.125Z,1.10
2022-10-01T21:35:01.363Z,0.80
2022-10-01T21:37:39.812Z,0.90
2022-10-01T21:40:35.552Z,1.10
2022-10-01T21:43:24.392Z,0.93
2022-10-01T21:45:58.956Z,1.13
2022-10-01T21:48:41.667Z,1.25
2022-10-01T21:51:34.726Z,1.30
2022-10-01T21:54:35.295Z,1.20
2022-10-01T21:57:27.188Z,1.13
2022-10-01T22:00:11.391Z,1.10
2022-10-01T22:03:09.145Z,1.50
2022-10-01T22:06:03.250Z,1.30
2022-10-01T22:08:51.598Z,1.35
2022-10-01T22:11:29.362Z,1.60
2022-10-01T22:14:04.933Z,1.85
2022-10-01T22:16:45.881Z,1.63
2022-10-01T22:19:28.135Z,2.08
2022-10-01T22:22:11.222Z,1.52
2022-10-01T22:24:51.743Z,1.40
2022-10-01T22:27:40.380Z,1.80
2022-10-01T22:30:18.413Z,1.70
2022-10-01T22:33:18.609Z,1.83
2022-10-01T22:35:54.233Z,1.70
2022-10-01T22:38:40.910Z,1.67
2022-10-01T22:41:33.640Z,1.60
2022-10-01T22:44:15.601Z,1.55
2022-10-01T22:46:55.866Z,1.60
2022-10-01T22:49:45.112Z,1.65
2022-10-01T22:52:36.589Z,1.90
2022-10-01T22:55:29.078Z,1.75
2022-10-01T22:58:02.448Z,1.52
2022-10-01T23:00:44.010Z,1.92
2022-10-01T23:03:18.394Z,1.73
2022-10-01T23:06:02.394Z,1.92
2022-10-01T23:08:54.627Z,2.20
2022-10-01T23:11:39.162Z,1.98
2022-10-01T23:14:23.649Z,1.77
2022-10-01T23:17:05.201Z,1.88
2022-10-01T23:19:53.672Z,2.15
2022-10-01T23:22:27.982Z,1.88
2022-10-01T23:25:18.172Z,2.10
2022-10-01T23:27:53.901Z,1.73
2022-10-01T23:30:45.766Z,1.98
2022-10-01T23:33:25.618Z,1.60
2022-10-01T23:36:21.064Z,1.83
2022-10-01T23:39:16.780Z,2.20
2022-10-01T23:42:05.137Z,1.95
2022-10-01T23:44:43.174Z,1.77
2022-10-01T23:47:22.660Z,1.90
2022-10-01T23:49:58.188Z,1.95
2022-10-01T23:52:45.786Z,2.13
2022-10-01T23:55:40.898Z,2.15
2022-10-01T23:58:16.028Z,2.30
